Pagrindinis puslapis
METAR-TAF:

METAR-TAF

Oro uostai :

Luganas, Šveicarija

platuma: 46-00N, ilguma: 008-58E, Aukštis: 273 m

Dabartinis oras

Ataskaita buvo paskelbta 21 minutes, ne 12:50 UTC
Vėjas 4 kt iš Pietų
Temperatūra 18°C
Drėgmė 32%
Slėgis 1031 hPa
Matomumas 10 km arba daugiau
nėra debesų žemiau 1500 m ir nėra kamuolinių lietaus debesų

METAR: LSZA 251250Z 19004KT CAVOK 18/01 Q1031 NOSIG

Laikas: 14:11 (13:11 UTC)

Prognozė

Ataskaita buvo paskelbta 1 valandą ir 46 minutes, ne 11:25 UTC
Prognozė galioja nuo 25 metu 12 UTC su 25 metu 21 UTC
Vėjas 3 kt iš Pietų/Pietvakarių
Matomumas 10 km arba daugiau
nėra debesų žemiau 1500 m ir nėra kamuolinių lietaus debesų

TAF: LSZA 251125Z 2512/2521 20003KT CAVOK

Orai ataskaitas ir orų prognozės (METAR, TAF).

turimą stotys yra geltonos ir raudonos taškus žemėlapyje.

Perkelti pele per norėdami pamatyti stoties vardą.

Tada spustelėkite, norėdami matyti oro stebėjimo ir prognozės.

Norėdami pakeisti žemėlapį: spustelėkite ant žalios mygtukų su juodo kryžiaus žemyn,; žalią mygtuką su brūkšneliu, jei norite nutolinti; arba žalių rodyklių gretimoms žemėlapius.


METAR-TAF: